Time;durP1;ratioP1;P1;durP2;ratioP2;P2;SDS_P1;SDS_P2;PMS_P1;PMS_P2;Temp;Humidity;BMP_temperature;BMP_pressure;BME280_temperature;BME280_humidity;BME280_pressure;Samples;Min_cycle;Max_cycle;Signal;HPM_P1;HPM_P2
2023/04/17 00:01:17;;;;;;;;;;;9.40;99.90;;;;;;5072596;28;19924;-65
2023/04/17 00:03:45;;;;;;;;;;;9.40;99.90;;;;;;5072242;28;19928;-67
2023/04/17 00:06:13;;;;;;;;;;;9.40;99.90;;;;;;5072367;28;19931;-66
2023/04/17 00:08:42;;;;;;;;;;;9.40;99.90;;;;;;5072481;28;19989;-65
2023/04/17 00:11:09;;;;;;;;;;;9.40;99.90;;;;;;5072398;28;19931;-66
2023/04/17 00:13:36;;;;;;;;;;;9.40;99.90;;;;;;5072043;28;19929;-65
2023/04/17 00:16:02;;;;;;;;;;;9.40;99.90;;;;;;5072557;28;19928;-65
2023/04/17 00:18:29;;;;;;;;;;;9.40;99.90;;;;;;5072225;28;19925;-66
2023/04/17 00:20:56;;;;;;;;;;;9.40;99.90;;;;;;5072183;28;19924;-66
2023/04/17 00:23:23;;;;;;;;;;;9.40;99.90;;;;;;5072374;28;19931;-65
2023/04/17 00:25:51;;;;;;;;;;;9.40;99.90;;;;;;5072466;28;19951;-65
2023/04/17 00:28:18;;;;;;;;;;;9.40;99.90;;;;;;5072474;28;19925;-66
2023/04/17 00:30:45;;;;;;;;;;;9.40;99.90;;;;;;5072145;28;19924;-65
2023/04/17 00:33:12;;;;;;;;;;;9.40;99.90;;;;;;5072033;28;19926;-65
2023/04/17 00:35:38;;;;;;;;;;;9.40;99.90;;;;;;5071783;28;19932;-65
2023/04/17 00:38:06;;;;;;;;;;;9.40;99.90;;;;;;5071977;28;19928;-66
2023/04/17 00:40:33;;;;;;;;;;;9.40;99.90;;;;;;5071907;28;19964;-65
2023/04/17 00:43:02;;;;;;;;;;;9.40;99.90;;;;;;5071833;28;19947;-66
2023/04/17 00:45:28;;;;;;;;;;;9.30;99.90;;;;;;5072033;28;19924;-64
2023/04/17 00:47:56;;;;;;;;;;;9.30;99.90;;;;;;5072031;28;19932;-66
2023/04/17 00:50:24;;;;;;;;;;;9.30;99.90;;;;;;5071967;28;20019;-66
2023/04/17 00:52:51;;;;;;;;;;;9.30;99.90;;;;;;5071440;28;19928;-66
2023/04/17 00:55:18;;;;;;;;;;;9.30;99.90;;;;;;5071691;28;19940;-68
2023/04/17 00:57:48;;;;;;;;;;;9.30;99.90;;;;;;5071893;28;19935;-65
2023/04/17 01:00:17;;;;;;;;;;;9.30;99.90;;;;;;5071612;28;19952;-66
2023/04/17 01:02:43;;;;;;;;;;;9.30;99.90;;;;;;5071277;28;19925;-65
2023/04/17 01:05:10;;;;;;;;;;;9.30;99.90;;;;;;5071161;28;20399;-66
2023/04/17 01:07:37;;;;;;;;;;;9.30;99.90;;;;;;5071293;28;20315;-65
2023/04/17 01:10:05;;;;;;;;;;;9.30;99.90;;;;;;5071684;28;19931;-64
2023/04/17 01:12:31;;;;;;;;;;;9.30;99.90;;;;;;5071051;28;20276;-64
2023/04/17 01:14:58;;;;;;;;;;;9.30;99.90;;;;;;5071204;28;20331;-66
2023/04/17 01:17:27;;;;;;;;;;;9.30;99.90;;;;;;5071340;28;20342;-66
2023/04/17 01:19:55;;;;;;;;;;;9.30;99.90;;;;;;5071389;28;19932;-66
2023/04/17 01:22:21;;;;;;;;;;;9.30;99.90;;;;;;5071349;28;19932;-66
2023/04/17 01:24:54;;;;;;;;;;;9.30;99.90;;;;;;5070988;28;20383;-65
2023/04/17 01:27:21;;;;;;;;;;;9.30;99.90;;;;;;5071183;28;19925;-66
2023/04/17 01:29:48;;;;;;;;;;;9.30;99.90;;;;;;5071292;28;19932;-65
2023/04/17 01:32:15;;;;;;;;;;;9.30;99.90;;;;;;5071195;28;20357;-66
2023/04/17 01:34:42;;;;;;;;;;;9.20;99.90;;;;;;5070768;28;19932;-68
2023/04/17 01:37:08;;;;;;;;;;;9.30;99.90;;;;;;5071031;28;20325;-66
2023/04/17 01:39:36;;;;;;;;;;;9.20;99.90;;;;;;5070903;28;19932;-66
2023/04/17 01:42:05;;;;;;;;;;;9.20;99.90;;;;;;5070716;28;19989;-64
2023/04/17 01:44:32;;;;;;;;;;;9.20;99.90;;;;;;5071055;28;19924;-66
2023/04/17 01:46:59;;;;;;;;;;;9.20;99.90;;;;;;5071030;28;19932;-66
2023/04/17 01:49:25;;;;;;;;;;;9.20;99.90;;;;;;5071082;28;19932;-66
2023/04/17 01:51:52;;;;;;;;;;;9.20;99.90;;;;;;5070832;28;20272;-66
2023/04/17 01:54:20;;;;;;;;;;;9.20;99.90;;;;;;5070950;28;20436;-66
2023/04/17 01:56:46;;;;;;;;;;;9.20;99.90;;;;;;5070565;28;19932;-65
2023/04/17 01:59:14;;;;;;;;;;;9.20;99.90;;;;;;5070677;28;20413;-64
2023/04/17 02:01:42;;;;;;;;;;;9.20;99.90;;;;;;5070765;28;19924;-66
2023/04/17 02:04:08;;;;;;;;;;;9.20;99.90;;;;;;5070770;28;19931;-66
2023/04/17 02:06:35;;;;;;;;;;;9.20;99.90;;;;;;5070701;28;19925;-66
2023/04/17 02:09:02;;;;;;;;;;;9.20;99.90;;;;;;5070863;28;19924;-66
2023/04/17 02:11:29;;;;;;;;;;;9.20;99.90;;;;;;5070594;28;19932;-66
2023/04/17 02:13:56;;;;;;;;;;;9.20;99.90;;;;;;5070713;28;20399;-66
2023/04/17 02:16:24;;;;;;;;;;;9.20;99.90;;;;;;5072293;28;19976;-66
2023/04/17 02:18:51;;;;;;;;;;;9.20;99.90;;;;;;5074838;28;19929;-66
2023/04/17 02:21:18;;;;;;;;;;;9.10;99.90;;;;;;5074462;28;20472;-66
2023/04/17 02:23:45;;;;;;;;;;;9.10;99.90;;;;;;5074302;28;19924;-66
2023/04/17 02:26:11;;;;;;;;;;;9.10;99.90;;;;;;5074213;28;20310;-66
2023/04/17 02:28:39;;;;;;;;;;;;;;;;;;5074508;28;19936;-66
2023/04/17 02:31:06;;;;;;;;;;;9.10;99.90;;;;;;5074221;28;19924;-66
2023/04/17 02:33:35;;;;;;;;;;;9.10;99.90;;;;;;5073815;28;19932;-65
2023/04/17 02:36:03;;;;;;;;;;;9.10;99.90;;;;;;5074332;28;20369;-65
2023/04/17 02:38:37;;;;;;;;;;;9.10;99.90;;;;;;5072934;28;19936;-66
2023/04/17 02:41:04;;;;;;;;;;;9.10;99.90;;;;;;5073682;28;19967;-66
2023/04/17 02:43:32;;;;;;;;;;;9.10;99.90;;;;;;5074055;28;19924;-66
2023/04/17 02:46:00;;;;;;;;;;;9.10;99.90;;;;;;5074178;28;19924;-65
2023/04/17 02:48:27;;;;;;;;;;;9.10;99.90;;;;;;5074004;28;20376;-64
2023/04/17 02:50:55;;;;;;;;;;;9.10;99.90;;;;;;5074294;28;19924;-66
2023/04/17 02:53:23;;;;;;;;;;;9.10;99.90;;;;;;5073807;28;20036;-64
2023/04/17 02:55:50;;;;;;;;;;;9.10;99.90;;;;;;5073782;28;19925;-66
2023/04/17 02:58:20;;;;;;;;;;;9.10;99.90;;;;;;5073758;28;19925;-67
2023/04/17 03:00:47;;;;;;;;;;;9.00;99.90;;;;;;5073736;28;19925;-65
2023/04/17 03:03:17;;;;;;;;;;;9.10;99.90;;;;;;5073890;28;20338;-65
2023/04/17 03:05:43;;;;;;;;;;;9.00;99.90;;;;;;5073621;28;20414;-66
2023/04/17 03:08:12;;;;;;;;;;;9.00;99.90;;;;;;5073576;28;19968;-66
2023/04/17 03:10:47;;;;;;;;;;;9.00;99.90;;;;;;5073776;28;19935;-65
2023/04/17 03:13:14;;;;;;;;;;;9.00;99.90;;;;;;5073520;28;19939;-64
2023/04/17 03:15:41;;;;;;;;;;;9.00;99.90;;;;;;5073704;28;19931;-66
2023/04/17 03:18:08;;;;;;;;;;;9.00;99.90;;;;;;5073550;28;19943;-65
2023/04/17 03:20:34;;;;;;;;;;;9.00;99.90;;;;;;5073495;28;19932;-64
2023/04/17 03:23:01;;;;;;;;;;;9.00;99.90;;;;;;5073066;28;19974;-67
2023/04/17 03:25:30;;;;;;;;;;;9.00;99.90;;;;;;5073350;28;19924;-65
2023/04/17 03:27:56;;;;;;;;;;;8.90;99.90;;;;;;5072626;28;19931;-66
2023/04/17 03:30:31;;;;;;;;;;;;;;;;;;5073659;28;19925;-65
2023/04/17 03:33:01;;;;;;;;;;;8.90;99.90;;;;;;5073143;28;19924;-65
2023/04/17 03:35:30;;;;;;;;;;;8.90;99.90;;;;;;5073006;28;19924;-66
2023/04/17 03:37:57;;;;;;;;;;;9.00;99.90;;;;;;5073258;28;19972;-66
2023/04/17 03:40:24;;;;;;;;;;;8.90;99.90;;;;;;5073237;28;20409;-66
2023/04/17 03:42:52;;;;;;;;;;;8.90;99.90;;;;;;5072915;28;20428;-65
2023/04/17 03:45:19;;;;;;;;;;;8.90;99.90;;;;;;5073133;28;19928;-66
2023/04/17 03:47:47;;;;;;;;;;;8.90;99.90;;;;;;5073305;28;19924;-65
2023/04/17 03:50:14;;;;;;;;;;;8.90;99.90;;;;;;5073352;28;19932;-65
2023/04/17 03:52:48;;;;;;;;;;;8.90;99.90;;;;;;5072994;28;19931;-65
2023/04/17 03:55:16;;;;;;;;;;;8.90;99.90;;;;;;5073133;28;19931;-66
2023/04/17 03:57:44;;;;;;;;;;;8.90;99.90;;;;;;5072852;28;19924;-65
2023/04/17 04:00:15;;;;;;;;;;;8.90;99.90;;;;;;5072676;28;20471;-65
2023/04/17 04:02:52;;;;;;;;;;;8.90;99.90;;;;;;5072788;28;19924;-66
2023/04/17 04:05:23;;;;;;;;;;;8.90;99.90;;;;;;5072983;28;19960;-66
2023/04/17 04:07:51;;;;;;;;;;;8.90;99.90;;;;;;5072668;28;19924;-66
2023/04/17 04:10:25;;;;;;;;;;;8.90;99.90;;;;;;5072612;28;19925;-65
2023/04/17 04:12:52;;;;;;;;;;;8.90;99.90;;;;;;5072229;28;19925;-66
2023/04/17 04:15:21;;;;;;;;;;;8.90;99.90;;;;;;5072786;28;20294;-66
2023/04/17 04:17:53;;;;;;;;;;;8.80;99.90;;;;;;5072757;28;19924;-66
2023/04/17 04:20:21;;;;;;;;;;;8.80;99.90;;;;;;5072632;28;19925;-66
2023/04/17 04:22:49;;;;;;;;;;;8.80;99.90;;;;;;5072191;28;19930;-65
2023/04/17 04:25:16;;;;;;;;;;;8.80;99.90;;;;;;5071413;28;19932;-67
2023/04/17 04:27:49;;;;;;;;;;;8.80;99.90;;;;;;5072113;28;20026;-65
2023/04/17 04:30:24;;;;;;;;;;;8.80;99.90;;;;;;5072179;28;19967;-65
2023/04/17 04:32:54;;;;;;;;;;;8.80;99.90;;;;;;5071918;28;19948;-66
2023/04/17 04:35:24;;;;;;;;;;;8.80;99.90;;;;;;5072200;28;19974;-65
2023/04/17 04:37:53;;;;;;;;;;;8.80;99.90;;;;;;5072185;28;19925;-68
2023/04/17 04:40:21;;;;;;;;;;;8.80;99.90;;;;;;5070990;28;19924;-67
2023/04/17 04:42:50;;;;;;;;;;;8.80;99.90;;;;;;5071956;28;20027;-76
2023/04/17 04:45:23;;;;;;;;;;;8.80;99.90;;;;;;5077914;28;19928;-66
2023/04/17 04:47:50;;;;;;;;;;;8.80;99.90;;;;;;5089015;28;19931;-66
2023/04/17 04:50:17;;;;;;;;;;;8.80;99.90;;;;;;5091890;28;19931;-68
2023/04/17 04:52:44;;;;;;;;;;;8.80;99.90;;;;;;5091594;28;19932;-68
2023/04/17 04:55:25;;;;;;;;;;;8.80;99.90;;;;;;5092152;28;19928;-68
2023/04/17 04:57:54;;;;;;;;;;;8.80;99.90;;;;;;5091976;28;20374;-68
2023/04/17 05:00:25;;;;;;;;;;;8.80;99.90;;;;;;5091439;28;19924;-68
2023/04/17 05:02:54;;;;;;;;;;;8.80;99.90;;;;;;5078050;28;20019;-68
2023/04/17 05:05:25;;;;;;;;;;;8.80;99.90;;;;;;5085470;28;19928;-67
2023/04/17 05:07:53;;;;;;;;;;;8.80;99.90;;;;;;5091581;28;20406;-68
2023/04/17 05:10:22;;;;;;;;;;;8.90;99.90;;;;;;5091836;28;19928;-68
2023/04/17 05:12:53;;;;;;;;;;;8.90;99.90;;;;;;5082577;28;19925;-68
2023/04/17 05:15:19;;;;;;;;;;;8.90;99.90;;;;;;5071580;28;19947;-68
2023/04/17 05:17:48;;;;;;;;;;;8.90;99.90;;;;;;5071374;28;19925;-66
2023/04/17 05:20:15;;;;;;;;;;;8.90;99.90;;;;;;5071243;28;19925;-68
2023/04/17 05:22:49;;;;;;;;;;;9.00;99.90;;;;;;5071248;28;20387;-68
2023/04/17 05:25:18;;;;;;;;;;;8.90;99.90;;;;;;5072457;28;20051;-68
2023/04/17 05:27:45;;;;;;;;;;;9.00;99.90;;;;;;5071339;28;19924;-68
2023/04/17 05:30:13;;;;;;;;;;;9.00;99.90;;;;;;5071267;28;19936;-67
2023/04/17 05:32:45;;;;;;;;;;;9.00;99.90;;;;;;5071302;28;19925;-72
2023/04/17 05:35:23;;;;;;;;;;;9.00;99.90;;;;;;5070581;28;19924;-67
2023/04/17 05:37:51;;;;;;;;;;;;;;;;;;5070805;28;19925;-67
2023/04/17 05:40:18;;;;;;;;;;;;;;;;;;5070050;28;19929;-67
2023/04/17 05:42:45;;;;;;;;;;;9.00;99.90;;;;;;5070534;28;19925;-67
2023/04/17 05:45:12;;;;;;;;;;;9.00;99.90;;;;;;5070982;28;19925;-67
2023/04/17 05:47:39;;;;;;;;;;;9.00;99.90;;;;;;5070805;28;19931;-68
2023/04/17 05:50:06;;;;;;;;;;;;;;;;;;5070555;28;19925;-67
2023/04/17 05:52:35;;;;;;;;;;;9.10;99.90;;;;;;5088450;28;19938;-66
2023/04/17 05:55:03;;;;;;;;;;;9.10;99.90;;;;;;5090262;28;20399;-68
2023/04/17 05:57:32;;;;;;;;;;;9.20;99.90;;;;;;5090080;28;19924;-68
2023/04/17 06:00:00;;;;;;;;;;;9.20;99.90;;;;;;5090011;28;19924;-68
2023/04/17 06:02:27;;;;;;;;;;;9.30;99.90;;;;;;5088854;28;19924;-68
2023/04/17 06:04:57;;;;;;;;;;;9.30;99.90;;;;;;5088101;28;19986;-68
2023/04/17 06:07:23;;;;;;;;;;;9.30;99.90;;;;;;5088315;28;19947;-68
2023/04/17 06:09:51;;;;;;;;;;;;;;;;;;5087875;28;19924;-67
2023/04/17 06:12:18;;;;;;;;;;;;;;;;;;5070559;28;19924;-69
2023/04/17 06:14:45;;;;;;;;;;;;;;;;;;5067937;28;19931;-67
2023/04/17 06:17:13;;;;;;;;;;;;;;;;;;5068536;28;20411;-68
2023/04/17 06:19:40;;;;;;;;;;;;;;;;;;5069648;28;19931;-66
2023/04/17 06:22:07;;;;;;;;;;;;;;;;;;5069696;28;20375;-68
2023/04/17 06:24:35;;;;;;;;;;;;;;;;;;5069373;28;19925;-68
2023/04/17 06:27:02;;;;;;;;;;;;;;;;;;5069609;28;19970;-68
2023/04/17 06:29:30;;;;;;;;;;;;;;;;;;5069383;28;19928;-69
2023/04/17 06:31:57;;;;;;;;;;;;;;;;;;5069547;28;19932;-68
2023/04/17 06:34:24;;;;;;;;;;;;;;;;;;5069207;28;19932;-68
2023/04/17 06:36:52;;;;;;;;;;;;;;;;;;5069121;28;19971;-68
2023/04/17 06:39:20;;;;;;;;;;;;;;;;;;5069413;28;19924;-68
2023/04/17 06:41:49;;;;;;;;;;;9.80;99.90;;;;;;5069815;28;19924;-68
2023/04/17 06:44:25;;;;;;;;;;;9.80;99.90;;;;;;5069432;28;20036;-66
2023/04/17 06:46:54;;;;;;;;;;;9.80;99.90;;;;;;5069016;28;20014;-66
2023/04/17 06:49:21;;;;;;;;;;;9.90;99.90;;;;;;5069198;28;19924;-66
2023/04/17 06:51:48;;;;;;;;;;;9.90;99.90;;;;;;5069488;28;19924;-66
2023/04/17 06:54:15;;;;;;;;;;;9.90;99.90;;;;;;5069566;28;19931;-66
2023/04/17 06:56:42;;;;;;;;;;;;;;;;;;5069308;28;19925;-66
2023/04/17 06:59:10;;;;;;;;;;;9.90;99.90;;;;;;5069190;28;19951;-67
2023/04/17 07:01:39;;;;;;;;;;;;;;;;;;5069013;28;19924;-67
2023/04/17 07:04:07;;;;;;;;;;;;;;;;;;5071828;28;20303;-69
2023/04/17 07:06:35;;;;;;;;;;;9.50;99.90;;;;;;5072962;28;19924;-69
2023/04/17 07:09:02;;;;;;;;;;;9.90;99.90;;;;;;5072984;28;19925;-69
2023/04/17 07:11:28;;;;;;;;;;;9.90;99.90;;;;;;5072590;28;19925;-66
2023/04/17 07:13:55;;;;;;;;;;;;;;;;;;5072654;28;19924;-70
2023/04/17 07:16:23;;;;;;;;;;;;;;;;;;5089543;28;19928;-66
2023/04/17 07:18:50;;;;;;;;;;;;;;;;;;5089638;28;19928;-66
2023/04/17 07:21:17;;;;;;;;;;;;;;;;;;5089435;28;19924;-67
2023/04/17 07:23:44;;;;;;;;;;;;;;;;;;5089126;28;19931;-66
2023/04/17 07:26:11;;;;;;;;;;;;;;;;;;5089332;28;19978;-67
2023/04/17 07:28:38;;;;;;;;;;;;;;;;;;5089528;28;19929;-66
2023/04/17 07:31:07;;;;;;;;;;;9.90;99.90;;;;;;5089227;28;19932;-66
2023/04/17 07:33:35;;;;;;;;;;;9.80;99.90;;;;;;5072039;28;19931;-66
2023/04/17 07:36:01;;;;;;;;;;;9.80;99.90;;;;;;5072166;28;20383;-66
2023/04/17 07:38:30;;;;;;;;;;;9.90;99.90;;;;;;5073502;28;19928;-65
2023/04/17 07:40:56;;;;;;;;;;;9.90;99.90;;;;;;5072157;28;19931;-68
2023/04/17 07:43:23;;;;;;;;;;;9.90;99.90;;;;;;5071896;28;19967;-66
2023/04/17 07:45:50;;;;;;;;;;;9.80;99.90;;;;;;5072180;28;19932;-66
2023/04/17 07:48:18;;;;;;;;;;;9.80;99.90;;;;;;5072103;28;19928;-66
2023/04/17 07:50:45;;;;;;;;;;;9.90;99.90;;;;;;5072047;28;19925;-69
2023/04/17 07:53:12;;;;;;;;;;;9.80;99.90;;;;;;5071652;28;19931;-69
2023/04/17 07:55:39;;;;;;;;;;;9.90;99.90;;;;;;5071941;28;19932;-66
2023/04/17 07:58:06;;;;;;;;;;;10.00;99.90;;;;;;5071620;28;19931;-66
2023/04/17 08:00:33;;;;;;;;;;;10.00;99.90;;;;;;5072030;28;19932;-66
2023/04/17 08:03:00;;;;;;;;;;;10.00;99.90;;;;;;5071827;28;19925;-67
2023/04/17 08:05:28;;;;;;;;;;;10.10;99.90;;;;;;5072418;28;19924;-66
2023/04/17 08:07:55;;;;;;;;;;;10.10;99.90;;;;;;5071754;28;19924;-66
2023/04/17 08:10:22;;;;;;;;;;;10.10;99.90;;;;;;5073376;28;19928;-67
2023/04/17 08:12:49;;;;;;;;;;;10.10;99.90;;;;;;5091762;28;19932;-67
2023/04/17 08:15:16;;;;;;;;;;;10.20;99.90;;;;;;5091375;28;19938;-66
2023/04/17 08:17:43;;;;;;;;;;;10.30;99.90;;;;;;5091680;28;19928;-66
2023/04/17 08:20:10;;;;;;;;;;;10.30;99.90;;;;;;5091665;28;19947;-67
2023/04/17 08:22:42;;;;;;;;;;;10.30;99.90;;;;;;5091425;28;20304;-64
2023/04/17 08:25:09;;;;;;;;;;;10.40;99.90;;;;;;5091591;28;20022;-67
2023/04/17 08:27:36;;;;;;;;;;;10.40;99.90;;;;;;5091563;28;19924;-66
2023/04/17 08:30:03;;;;;;;;;;;10.50;99.90;;;;;;5091428;28;19974;-66
2023/04/17 08:32:30;;;;;;;;;;;10.50;99.90;;;;;;5091391;28;19977;-66
2023/04/17 08:34:57;;;;;;;;;;;10.50;99.90;;;;;;5091574;28;19924;-66
2023/04/17 08:37:24;;;;;;;;;;;10.60;99.90;;;;;;5091371;28;19931;-67
2023/04/17 08:39:52;;;;;;;;;;;10.70;99.90;;;;;;5091110;28;19931;-66
2023/04/17 08:42:19;;;;;;;;;;;10.70;99.90;;;;;;5092972;28;19924;-66
2023/04/17 08:44:46;;;;;;;;;;;;;;;;;;5092247;28;19924;-66
2023/04/17 08:47:13;;;;;;;;;;;10.80;99.90;;;;;;5091094;28;19925;-66
2023/04/17 08:49:42;;;;;;;;;;;11.00;99.90;;;;;;5092276;28;19928;-66
2023/04/17 08:52:09;;;;;;;;;;;;;;;;;;5108203;28;20430;-66
2023/04/17 08:54:37;;;;;;;;;;;11.00;99.90;;;;;;5090937;28;19924;-67
2023/04/17 08:57:05;;;;;;;;;;;11.00;99.90;;;;;;5090822;28;19930;-66
2023/04/17 08:59:32;;;;;;;;;;;10.90;99.90;;;;;;5092391;28;20366;-66
2023/04/17 09:02:02;;;;;;;;;;;10.70;99.90;;;;;;5090965;28;19963;-67
2023/04/17 09:04:36;;;;;;;;;;;10.60;99.90;;;;;;5091912;28;19924;-67
2023/04/17 09:07:03;;;;;;;;;;;10.60;99.90;;;;;;5090730;28;19928;-69
2023/04/17 09:09:44;;;;;;;;;;;10.60;99.90;;;;;;5090587;28;20023;-67
2023/04/17 09:12:13;;;;;;;;;;;10.60;99.90;;;;;;5073591;28;19933;-66
2023/04/17 09:14:40;;;;;;;;;;;10.70;99.90;;;;;;5070314;28;19925;-67
2023/04/17 09:17:07;;;;;;;;;;;10.80;99.90;;;;;;5070296;28;20320;-67
2023/04/17 09:19:33;;;;;;;;;;;10.90;99.90;;;;;;5070309;28;20315;-66
2023/04/17 09:22:15;;;;;;;;;;;11.00;99.90;;;;;;5071566;28;19970;-67
2023/04/17 09:24:43;;;;;;;;;;;10.90;99.90;;;;;;5071072;28;19951;-67
2023/04/17 09:27:21;;;;;;;;;;;11.00;99.90;;;;;;5069726;28;19925;-66
2023/04/17 09:29:55;;;;;;;;;;;11.00;99.90;;;;;;5070345;28;20019;-66
2023/04/17 09:32:21;;;;;;;;;;;11.10;99.90;;;;;;5070171;28;19987;-66
2023/04/17 09:34:49;;;;;;;;;;;11.20;99.90;;;;;;5069888;28;19970;-66
2023/04/17 09:37:16;;;;;;;;;;;11.30;99.90;;;;;;5069788;28;20497;-66
2023/04/17 09:39:54;;;;;;;;;;;11.40;99.90;;;;;;5070208;28;19928;-66
2023/04/17 09:42:23;;;;;;;;;;;11.40;99.90;;;;;;5070088;28;19924;-67
2023/04/17 09:44:49;;;;;;;;;;;11.50;99.90;;;;;;5069958;28;19931;-66
2023/04/17 09:47:17;;;;;;;;;;;11.60;99.90;;;;;;5069821;28;19928;-66
2023/04/17 09:49:48;;;;;;;;;;;11.60;99.90;;;;;;5069839;28;19925;-66
2023/04/17 09:52:15;;;;;;;;;;;11.70;99.90;;;;;;5070098;28;20338;-66
2023/04/17 09:54:43;;;;;;;;;;;11.70;99.90;;;;;;5069670;28;19934;-66
2023/04/17 09:57:11;;;;;;;;;;;11.60;99.90;;;;;;5069921;28;19931;-66
2023/04/17 09:59:40;;;;;;;;;;;11.70;99.90;;;;;;5069443;28;19928;-66
2023/04/17 10:02:08;;;;;;;;;;;11.70;99.90;;;;;;5069799;28;19925;-66
2023/04/17 10:04:35;;;;;;;;;;;11.80;99.90;;;;;;5069903;28;20268;-66
2023/04/17 10:07:03;;;;;;;;;;;11.90;99.90;;;;;;5069885;28;19924;-67
2023/04/17 10:09:29;;;;;;;;;;;12.10;99.90;;;;;;5069529;28;19928;-67
2023/04/17 10:11:57;;;;;;;;;;;12.20;99.90;;;;;;5084430;28;19924;-65
2023/04/17 10:14:25;;;;;;;;;;;12.30;99.90;;;;;;5089467;28;19931;-66
2023/04/17 10:16:54;;;;;;;;;;;12.50;99.90;;;;;;5089924;28;19928;-67
2023/04/17 10:19:28;;;;;;;;;;;12.60;99.90;;;;;;5089801;28;20030;-66
2023/04/17 10:22:14;;;;;;;;;;;12.50;99.90;;;;;;5089881;28;19928;-65
2023/04/17 10:24:40;;;;;;;;;;;12.50;99.90;;;;;;5089615;28;19924;-67
2023/04/17 10:27:22;;;;;;;;;;;12.60;99.90;;;;;;5089733;28;20306;-67
2023/04/17 10:29:53;;;;;;;;;;;12.60;99.90;;;;;;5089903;28;19931;-65
2023/04/17 10:32:23;;;;;;;;;;;12.60;99.90;;;;;;5089682;28;19963;-68
2023/04/17 10:34:50;;;;;;;;;;;12.80;99.90;;;;;;5089447;28;19975;-67
2023/04/17 10:37:17;;;;;;;;;;;13.20;99.90;;;;;;5089625;28;19963;-67
2023/04/17 10:39:51;;;;;;;;;;;14.00;99.90;;;;;;5093542;28;19923;-66
2023/04/17 10:42:19;;;;;;;;;;;;;;;;;;5093122;28;19924;-66
2023/04/17 10:44:46;;;;;;;;;;;;;;;;;;5086593;28;19959;-67
2023/04/17 10:47:13;;;;;;;;;;;;;;;;;;5082969;28;20414;-66
2023/04/17 10:49:40;;;;;;;;;;;;;;;;;;5085225;28;19989;-67
2023/04/17 10:52:07;;;;;;;;;;;;;;;;;;5082765;28;19924;-67
2023/04/17 10:54:34;;;;;;;;;;;;;;;;;;5093937;28;19998;-66
2023/04/17 10:57:06;;;;;;;;;;;;;;;;;;5094140;28;19938;-67
2023/04/17 10:59:33;;;;;;;;;;;;;;;;;;5089547;28;19928;-67
2023/04/17 11:02:03;;;;;;;;;;;;;;;;;;5097481;28;19928;-66
2023/04/17 11:04:30;;;;;;;;;;;;;;;;;;5082749;28;19928;-65
2023/04/17 11:06:57;;;;;;;;;;;;;;;;;;5083532;28;19924;-66
2023/04/17 11:09:25;;;;;;;;;;;;;;;;;;5078907;28;19947;-66
2023/04/17 11:11:53;;;;;;;;;;;17.10;99.90;;;;;;5092179;28;20015;-65
2023/04/17 11:14:21;;;;;;;;;;;17.00;99.90;;;;;;5086338;28;19924;-66
2023/04/17 11:16:48;;;;;;;;;;;16.80;99.90;;;;;;5078466;28;20023;-66
2023/04/17 11:19:15;;;;;;;;;;;;;;;;;;5085038;28;19925;-66
2023/04/17 11:21:42;;;;;;;;;;;;;;;;;;5089865;28;19925;-72
2023/04/17 11:24:09;;;;;;;;;;;16.80;99.90;;;;;;5086735;28;19928;-73
2023/04/17 11:26:41;;;;;;;;;;;17.20;99.90;;;;;;5082206;28;19924;-74
2023/04/17 11:29:15;;;;;;;;;;;17.90;99.90;;;;;;5079091;28;20394;-73
2023/04/17 11:31:42;;;;;;;;;;;18.20;99.90;;;;;;5091826;28;20310;-73
2023/04/17 11:34:10;;;;;;;;;;;;;;;;;;5083885;28;20335;-65
2023/04/17 11:36:36;;;;;;;;;;;19.40;99.90;;;;;;5091828;28;19928;-65
2023/04/17 11:39:03;;;;;;;;;;;;;;;;;;5090643;28;19924;-65
2023/04/17 11:41:35;;;;;;;;;;;17.00;99.90;;;;;;5083021;28;19931;-65
2023/04/17 11:44:02;;;;;;;;;;;17.60;99.90;;;;;;5085238;28;19924;-65
2023/04/17 11:46:30;;;;;;;;;;;17.60;99.90;;;;;;5084360;28;19924;-65
2023/04/17 11:48:57;;;;;;;;;;;17.20;99.90;;;;;;5085504;28;19943;-65
2023/04/17 11:51:25;;;;;;;;;;;16.80;99.90;;;;;;5086089;28;19938;-65
2023/04/17 11:53:52;;;;;;;;;;;16.70;99.90;;;;;;5080560;28;19924;-65
2023/04/17 11:56:19;;;;;;;;;;;18.80;99.90;;;;;;5089493;28;19930;-65
2023/04/17 11:58:47;;;;;;;;;;;19.80;99.90;;;;;;5082638;28;19931;-65
2023/04/17 12:01:14;;;;;;;;;;;19.30;99.90;;;;;;5084172;28;19928;-66
2023/04/17 12:03:42;;;;;;;;;;;19.60;99.90;;;;;;5084771;28;19931;-66
2023/04/17 12:06:10;;;;;;;;;;;21.30;99.90;;;;;;5090382;28;19929;-66
2023/04/17 12:08:44;;;;;;;;;;;21.90;99.90;;;;;;5084003;28;19982;-66
2023/04/17 12:11:22;;;;;;;;;;;23.90;99.90;;;;;;5080143;28;19976;-67
2023/04/17 12:13:49;;;;;;;;;;;25.50;99.90;;;;;;5091026;28;19928;-67
2023/04/17 12:16:16;;;;;;;;;;;25.90;99.90;;;;;;5081665;28;19967;-66
2023/04/17 12:18:44;;;;;;;;;;;26.20;99.90;;;;;;5081735;28;19931;-66
2023/04/17 12:21:11;;;;;;;;;;;26.80;99.90;;;;;;5084089;28;20319;-65
2023/04/17 12:23:38;;;;;;;;;;;27.20;99.90;;;;;;5083528;28;19924;-66
2023/04/17 12:26:05;;;;;;;;;;;28.50;99.90;;;;;;5083159;28;19974;-66
2023/04/17 12:28:31;;;;;;;;;;;29.30;99.90;;;;;;5076962;28;19932;-67
2023/04/17 12:30:58;;;;;;;;;;;28.50;99.90;;;;;;5084856;28;19950;-67
2023/04/17 12:33:25;;;;;;;;;;;27.90;99.90;;;;;;5088683;28;19928;-65
2023/04/17 12:35:54;;;;;;;;;;;27.00;99.90;;;;;;5081785;28;19973;-67
2023/04/17 12:38:22;;;;;;;;;;;26.60;99.90;;;;;;5082620;28;19924;-66
2023/04/17 12:40:48;;;;;;;;;;;26.90;99.90;;;;;;5089982;28;19924;-66
2023/04/17 12:43:15;;;;;;;;;;;26.90;99.90;;;;;;5081161;28;19935;-67
2023/04/17 12:45:44;;;;;;;;;;;26.00;99.90;;;;;;5081592;28;19931;-66
2023/04/17 12:48:11;;;;;;;;;;;26.30;99.90;;;;;;5085426;28;19978;-68
2023/04/17 12:50:41;;;;;;;;;;;26.00;99.90;;;;;;5082186;28;19928;-67
2023/04/17 12:53:10;;;;;;;;;;;25.30;99.90;;;;;;5086673;28;19924;-66
2023/04/17 12:55:37;;;;;;;;;;;25.70;99.90;;;;;;5087861;28;19973;-66
2023/04/17 12:58:06;;;;;;;;;;;26.50;99.90;;;;;;5081228;28;20339;-64
2023/04/17 13:00:34;;;;;;;;;;;25.50;99.90;;;;;;5083972;28;19924;-65
2023/04/17 13:03:00;;;;;;;;;;;24.40;99.90;;;;;;5087062;28;19924;-65
2023/04/17 13:05:27;;;;;;;;;;;24.70;99.90;;;;;;5087922;28;19924;-66
2023/04/17 13:07:54;;;;;;;;;;;25.90;99.90;;;;;;5081440;28;19932;-67
2023/04/17 13:10:22;;;;;;;;;;;27.20;99.90;;;;;;5090835;28;19924;-68
2023/04/17 13:12:49;;;;;;;;;;;26.70;99.90;;;;;;5082233;28;19985;-64
2023/04/17 13:15:16;;;;;;;;;;;;;;;;;;5082630;28;19939;-66
2023/04/17 13:17:44;;;;;;;;;;;;;;;;;;5075843;28;19925;-66
2023/04/17 13:20:11;;;;;;;;;;;27.60;99.90;;;;;;5088099;28;19998;-67
2023/04/17 13:22:37;;;;;;;;;;;27.90;99.90;;;;;;5091191;28;19932;-67
2023/04/17 13:25:04;;;;;;;;;;;28.30;99.90;;;;;;5079653;28;19924;-66
2023/04/17 13:27:33;;;;;;;;;;;28.40;99.90;;;;;;5087493;28;20319;-67
2023/04/17 13:29:59;;;;;;;;;;;28.10;99.90;;;;;;5082202;28;20383;-66
2023/04/17 13:32:26;;;;;;;;;;;28.00;99.90;;;;;;5080283;28;19927;-67
2023/04/17 13:34:54;;;;;;;;;;;27.40;99.90;;;;;;5083469;28;19924;-65
2023/04/17 13:37:20;;;;;;;;;;;26.90;99.90;;;;;;5073650;28;19924;-66
2023/04/17 13:39:47;;;;;;;;;;;26.20;99.90;;;;;;5085145;28;19990;-67
2023/04/17 13:42:15;;;;;;;;;;;26.70;99.90;;;;;;5080247;28;19931;-66
2023/04/17 13:44:43;;;;;;;;;;;27.30;99.90;;;;;;5088917;28;19928;-66
2023/04/17 13:47:10;;;;;;;;;;;28.30;99.90;;;;;;5092677;28;19936;-67
2023/04/17 13:49:36;;;;;;;;;;;28.10;99.90;;;;;;5080480;28;20418;-67
2023/04/17 13:52:04;;;;;;;;;;;26.60;99.90;;;;;;5088404;28;19981;-67
2023/04/17 13:54:31;;;;;;;;;;;26.80;99.90;;;;;;5081864;28;19930;-65
2023/04/17 13:56:57;;;;;;;;;;;27.00;99.90;;;;;;5087266;28;19924;-65
2023/04/17 13:59:24;;;;;;;;;;;26.40;99.90;;;;;;5094350;28;19931;-67
2023/04/17 14:01:52;;;;;;;;;;;25.10;99.90;;;;;;5080128;28;20391;-67
2023/04/17 14:04:20;;;;;;;;;;;24.40;99.90;;;;;;5078397;28;19978;-66
2023/04/17 14:06:49;;;;;;;;;;;24.20;99.90;;;;;;5085578;28;19935;-67
2023/04/17 14:09:16;;;;;;;;;;;24.00;99.90;;;;;;5085113;28;19924;-66
2023/04/17 14:11:43;;;;;;;;;;;24.50;99.90;;;;;;5082405;28;19985;-65
2023/04/17 14:14:11;;;;;;;;;;;25.10;99.90;;;;;;5091379;28;19924;-67
2023/04/17 14:16:38;;;;;;;;;;;25.10;99.90;;;;;;5084640;28;20026;-67
2023/04/17 14:19:07;;;;;;;;;;;24.40;99.90;;;;;;5104964;28;20288;-67
2023/04/17 14:21:35;;;;;;;;;;;24.90;99.90;;;;;;5080513;28;19924;-67
2023/04/17 14:24:02;;;;;;;;;;;25.20;99.90;;;;;;5102935;28;20350;-65
2023/04/17 14:26:28;;;;;;;;;;;24.50;99.90;;;;;;5091662;28;19959;-69
2023/04/17 14:28:55;;;;;;;;;;;24.70;99.90;;;;;;5091342;28;19927;-67
2023/04/17 14:31:22;;;;;;;;;;;25.70;99.90;;;;;;5090044;28;19927;-65
2023/04/17 14:33:49;;;;;;;;;;;26.40;99.90;;;;;;5085756;28;19999;-67
2023/04/17 14:36:17;;;;;;;;;;;26.20;99.90;;;;;;5088716;28;19924;-67
2023/04/17 14:38:47;;;;;;;;;;;26.70;99.90;;;;;;5089655;28;19924;-66
2023/04/17 14:41:14;;;;;;;;;;;27.80;99.90;;;;;;5107069;28;19932;-66
2023/04/17 14:43:41;;;;;;;;;;;27.20;99.90;;;;;;5098401;28;19931;-66
2023/04/17 14:46:08;;;;;;;;;;;27.30;99.90;;;;;;5092762;28;19931;-67